Time;durP1;ratioP1;P1;durP2;ratioP2;P2;SDS_P1;SDS_P2;PMS_P1;PMS_P2;Temp;Humidity;BMP_temperature;BMP_pressure;BME280_temperature;BME280_humidity;BME280_pressure;Samples;Min_cycle;Max_cycle;Signal;HPM_P1;HPM_P2
2022/07/11 00:01:31;;;;;;;2.80;1.13;;;15.00;42.20;;;15.18;61.26;101450.31;5063274;28;20456;-70
2022/07/11 00:04:00;;;;;;;3.53;1.27;;;15.10;42.90;;;15.07;61.49;101445.56;5056913;28;20500;-70
2022/07/11 00:06:29;;;;;;;3.63;1.40;;;15.00;43.50;;;15.06;62.00;101443.88;5059606;28;20929;-69
2022/07/11 00:08:58;;;;;;;3.20;1.60;;;14.90;44.50;;;15.02;62.05;101442.66;5063628;28;20441;-69
2022/07/11 00:11:28;;;;;;;2.93;1.03;;;14.90;44.90;;;14.87;62.55;101444.81;5061003;28;21037;-70
2022/07/11 00:13:58;;;;;;;6.63;1.57;;;14.80;45.20;;;14.78;62.64;101440.69;5057119;28;20891;-70
2022/07/11 00:16:27;;;;;;;2.97;1.03;;;14.70;1.00;;;14.72;62.74;101441.53;5055662;28;20526;-70
2022/07/11 00:18:56;;;;;;;3.90;1.43;;;14.70;1.00;;;14.63;63.35;101443.66;5057236;28;20454;-70
2022/07/11 00:21:25;;;;;;;2.43;1.43;;;14.50;1.00;;;14.53;63.59;101442.44;5067363;28;20563;-70
2022/07/11 00:23:55;;;;;;;2.63;1.17;;;14.50;1.00;;;14.50;63.76;101437.44;5063279;28;20402;-70
2022/07/11 00:26:24;;;;;;;4.93;1.20;;;14.40;1.00;;;14.50;63.82;101438.28;5058114;28;20462;-69
2022/07/11 00:28:54;;;;;;;1.97;1.13;;;14.40;1.00;;;14.35;64.39;101435.78;5057098;28;20524;-70
2022/07/11 00:31:24;;;;;;;3.20;1.27;;;14.30;1.00;;;14.33;64.56;101431.59;5059948;28;20425;-71
2022/07/11 00:33:53;;;;;;;6.23;1.30;;;14.30;1.00;;;14.30;64.66;101427.41;5059460;28;20897;-69
2022/07/11 00:36:22;;;;;;;2.60;1.03;;;14.20;1.00;;;14.29;64.81;101430.34;5056242;28;20423;-71
2022/07/11 00:38:52;;;;;;;2.27;0.80;;;14.20;1.00;;;14.22;65.01;101427.66;5056157;28;20936;-71
2022/07/11 00:41:21;;;;;;;5.70;1.60;;;14.20;1.00;;;14.17;65.23;101429.34;5050556;28;20456;-69
2022/07/11 00:43:55;;;;;;;2.90;1.10;;;14.10;1.00;;;14.20;65.46;101432.47;5057738;28;20440;-70
2022/07/11 00:46:28;;;;;;;3.80;1.47;;;14.10;1.00;;;14.11;65.71;101430.19;5049423;28;20522;-70
2022/07/11 00:48:59;;;;;;;2.70;1.40;;;14.00;1.00;;;13.98;66.14;101422.03;5056075;28;20465;-70
2022/07/11 00:51:29;;;;;;;3.53;1.40;;;13.90;1.00;;;13.89;66.46;101430.41;5060950;28;20788;-71
2022/07/11 00:54:01;;;;;;;3.10;1.13;;;13.90;1.00;;;13.81;66.71;101424.34;5049850;28;20443;-70
2022/07/11 00:56:32;;;;;;;10.63;1.50;;;13.80;1.00;;;13.76;66.97;101424.16;5061856;28;20777;-70
2022/07/11 00:59:02;;;;;;;3.40;1.57;;;13.80;1.00;;;13.72;67.26;101421.03;5055152;28;20893;-71
2022/07/11 01:01:37;;;;;;;3.63;1.43;;;13.70;1.00;;;13.76;67.14;101424.16;5054736;28;20459;-69
2022/07/11 01:04:07;;;;;;;4.90;1.40;;;13.70;1.00;;;13.61;67.87;101426.25;5060373;28;20816;-70
2022/07/11 01:06:36;;;;;;;2.23;1.30;;;13.60;1.00;;;13.56;68.36;101428.75;5057577;28;20405;-70
2022/07/11 01:09:05;;;;;;;2.63;1.37;;;13.60;1.00;;;13.46;68.40;101424.56;5068613;28;20453;-69
2022/07/11 01:11:35;;;;;;;7.00;1.13;;;13.50;1.00;;;13.31;68.86;101432.06;5075931;22;20459;-70
2022/07/11 01:14:04;;;;;;;6.40;1.40;;;13.40;1.00;;;13.32;69.19;101432.91;5034751;28;20438;-70
2022/07/11 01:16:35;;;;;;;2.97;1.10;;;13.30;1.00;;;13.29;69.43;101428.75;5039328;28;20968;-70
2022/07/11 01:19:04;;;;;;;5.33;1.67;;;13.30;1.00;;;13.31;69.24;101434.78;5015210;28;20451;-70
2022/07/11 01:21:38;;;;;;;2.60;1.57;;;13.30;1.00;;;13.26;69.57;101439.19;5032122;28;20524;-70
2022/07/11 01:24:10;;;;;;;7.73;1.83;;;13.20;1.00;;;13.25;69.58;101432.91;5033232;28;20463;-70
2022/07/11 01:26:39;;;;;;;4.43;2.37;;;13.20;1.00;;;13.22;69.70;101430.59;5015753;28;20444;-71
2022/07/11 01:29:11;;;;;;;3.60;1.37;;;13.20;1.00;;;13.10;70.08;101426.78;5015536;28;20824;-71
2022/07/11 01:31:42;;;;;;;2.03;1.23;;;13.10;1.00;;;13.15;70.09;101432.47;5032474;28;20424;-72
2022/07/11 01:34:12;;;;;;;3.30;1.30;;;13.10;7.40;;;13.03;70.42;101429.50;5046336;28;20903;-71
2022/07/11 01:36:42;;;;;;;2.57;1.40;;;13.10;11.30;;;13.02;70.55;101429.72;5015306;28;20442;-72
2022/07/11 01:39:13;;;;;;;2.63;1.50;;;13.00;16.70;;;13.03;70.42;101429.50;5032225;28;20928;-71
2022/07/11 01:41:42;;;;;;;1.57;1.00;;;13.00;17.80;;;12.89;70.94;101427.78;5014304;28;20426;-71
2022/07/11 01:44:11;;;;;;;2.00;1.00;;;12.90;25.70;;;12.89;71.09;101433.22;5034240;28;20458;-71
2022/07/11 01:46:40;;;;;;;5.97;1.17;;;12.90;34.90;;;12.83;71.36;101427.78;5018705;28;20411;-71
2022/07/11 01:49:09;;;;;;;4.13;1.33;;;12.80;40.60;;;12.82;71.29;101431.53;5016644;28;20504;-71
2022/07/11 01:51:39;;;;;;;3.03;1.30;;;12.80;43.70;;;12.76;71.85;101430.47;5038311;28;20407;-72
2022/07/11 01:54:08;;;;;;;7.40;1.43;;;12.80;60.30;;;12.68;72.14;101429.81;5025125;28;20982;-71
2022/07/11 01:56:38;;;;;;;2.70;1.20;;;12.70;99.90;;;12.71;71.89;101426.69;5020641;28;20451;-71
2022/07/11 01:59:07;;;;;;;3.13;1.73;;;12.70;99.50;;;12.60;72.56;101428.94;5034915;28;20835;-71
2022/07/11 02:01:36;;;;;;;2.80;1.47;;;12.60;99.90;;;12.50;72.88;101431.19;5035355;28;20501;-71
2022/07/11 02:04:05;;;;;;;6.87;1.80;;;12.60;1.00;;;12.45;72.99;101435.53;5041709;28;20432;-71
2022/07/11 02:06:34;;;;;;;3.97;1.50;;;12.50;1.00;;;12.47;73.31;101436.19;5014540;28;20517;-71
2022/07/11 02:09:03;;;;;;;3.27;1.80;;;12.50;58.50;;;12.44;73.10;101426.53;5013511;28;20475;-71
2022/07/11 02:11:32;;;;;;;2.87;1.47;;;12.40;99.90;;;12.47;73.35;101433.47;5016718;28;20509;-71
2022/07/11 02:14:02;;;;;;;2.60;0.93;;;12.40;99.90;;;12.46;73.43;101431.78;5034685;28;20424;-72
2022/07/11 02:16:31;;;;;;;2.17;1.30;;;12.40;99.90;;;12.46;73.32;101427.19;5015531;28;20900;-71
2022/07/11 02:19:00;;;;;;;3.20;1.33;;;12.40;99.90;;;12.51;72.93;101419.28;5041666;28;20449;-71
2022/07/11 02:21:29;;;;;;;4.17;1.53;;;12.40;99.90;;;12.43;73.30;101424.91;5030548;28;20629;-71
2022/07/11 02:23:58;;;;;;;3.47;1.27;;;12.40;99.90;;;12.37;73.42;101427.56;5015057;28;20538;-71
2022/07/11 02:26:27;;;;;;;3.10;1.57;;;12.40;99.90;;;12.51;73.03;101424.72;5014481;28;20443;-71
2022/07/11 02:28:56;;;;;;;5.13;1.30;;;12.40;99.90;;;12.48;73.17;101425.13;5019800;28;20844;-71
2022/07/11 02:31:26;;;;;;;1.53;1.20;;;12.40;99.90;;;12.40;73.36;101432.59;5046866;28;20762;-71
2022/07/11 02:33:55;;;;;;;2.20;1.67;;;12.40;99.90;;;12.38;73.79;101435.53;5058013;28;20530;-71
2022/07/11 02:36:24;;;;;;;2.43;1.20;;;12.40;99.90;;;12.45;73.65;101430.94;5037456;28;20486;-71
2022/07/11 02:38:53;;;;;;;4.33;1.87;;;12.40;99.90;;;12.41;73.19;101437.81;5025979;28;20533;-71
2022/07/11 02:41:22;;;;;;;7.17;1.97;;;12.40;99.90;;;12.48;73.29;101441.41;5052538;28;20853;-71
2022/07/11 02:43:50;;;;;;;2.83;1.90;;;12.40;99.90;;;12.53;73.00;101438.09;5034838;28;20444;-70
2022/07/11 02:46:19;;;;;;;3.57;2.10;;;12.40;99.90;;;12.57;72.95;101440.19;5016985;28;20431;-70
2022/07/11 02:48:50;;;;;;;3.33;1.20;;;12.50;99.90;;;12.53;73.20;101441.66;5036794;28;20459;-70
2022/07/11 02:51:19;;;;;;;2.60;1.43;;;12.40;99.90;;;12.53;73.40;101441.66;5032917;28;20697;-71
2022/07/11 02:53:48;;;;;;;1.93;1.50;;;12.40;99.90;;;12.48;73.26;101438.69;5030956;28;20741;-71
2022/07/11 02:56:17;;;;;;;5.03;1.37;;;12.40;99.90;;;12.51;72.95;101440.16;5035227;28;20462;-72
2022/07/11 02:58:46;;;;;;;3.23;1.07;;;12.40;99.90;;;12.37;73.70;101443.84;5014552;28;20505;-71
2022/07/11 03:01:13;;;;;;;2.70;1.30;;;12.40;99.90;;;12.26;74.35;101445.25;5036836;28;20464;-71
2022/07/11 03:03:42;;;;;;;4.33;1.77;;;12.30;99.90;;;12.27;74.17;101440.66;5010570;28;20423;-71
2022/07/11 03:06:14;;;;;;;4.80;1.53;;;12.20;99.90;;;12.32;73.91;101447.16;5021202;28;20428;-71
2022/07/11 03:08:43;;;;;;;3.67;1.10;;;12.30;99.90;;;12.23;74.38;101445.66;5018758;28;20542;-71
2022/07/11 03:11:11;;;;;;;7.40;1.97;;;12.20;99.90;;;12.25;74.29;101454.41;5029759;28;20824;-71
2022/07/11 03:13:40;;;;;;;3.67;1.00;;;12.20;99.90;;;12.29;74.57;101452.16;5023328;28;20459;-70
2022/07/11 03:16:10;;;;;;;6.63;1.60;;;12.20;99.90;;;12.20;74.28;101456.88;5044888;28;20485;-71
2022/07/11 03:18:39;;;;;;;3.73;1.63;;;12.20;99.90;;;12.18;74.88;101457.13;5029670;28;20408;-71
2022/07/11 03:21:08;;;;;;;4.07;1.40;;;12.20;99.90;;;12.19;74.82;101455.25;5014708;28;20498;-71
2022/07/11 03:23:38;;;;;;;4.27;1.87;;;12.20;99.90;;;12.13;74.54;101458.75;5047855;28;20479;-71
2022/07/11 03:26:07;;;;;;;7.47;1.83;;;12.10;99.90;;;12.13;74.56;101453.31;5032106;28;20922;-71
2022/07/11 03:28:36;;;;;;;6.70;1.80;;;12.10;99.90;;;12.11;74.74;101460.81;5019965;28;20510;-70
2022/07/11 03:31:05;;;;;;;1.30;1.10;;;12.10;99.90;;;12.02;74.81;101453.84;5012178;28;20434;-72
2022/07/11 03:33:34;;;;;;;7.00;2.07;;;12.00;99.90;;;12.11;74.75;101456.22;5041751;28;20497;-71
2022/07/11 03:36:03;;;;;;;3.60;1.30;;;12.00;99.90;;;12.13;75.10;101453.31;5025160;28;20425;-72
2022/07/11 03:38:32;;;;;;;2.73;1.30;;;12.00;99.90;;;12.10;75.05;101451.00;5013535;28;20448;-71
2022/07/11 03:41:03;;;;;;;3.50;1.60;;;12.00;99.90;;;12.08;75.09;101458.50;5030070;28;20503;-72
2022/07/11 03:43:32;;;;;;;5.43;1.67;;;12.00;99.90;;;12.21;74.82;101455.84;5017588;28;20449;-71
2022/07/11 03:46:02;;;;;;;5.03;1.30;;;12.10;99.90;;;12.53;73.61;101449.81;5018304;28;20941;-71
2022/07/11 03:48:31;;;;;;;1.83;1.47;;;12.20;99.90;;;13.79;69.23;101450.94;5028573;28;20443;-71
2022/07/11 03:51:00;;;;;;;2.73;1.47;;;12.60;99.90;;;14.52;66.32;101451.69;5024988;28;20438;-71
2022/07/11 03:53:29;;;;;;;5.43;2.13;;;13.10;99.90;;;15.08;64.70;101452.69;5011813;28;20459;-71
2022/07/11 03:55:58;;;;;;;2.43;1.47;;;13.50;99.90;;;15.98;61.45;101454.13;5030518;28;20424;-70
2022/07/11 03:58:28;;;;;;;1.90;1.37;;;14.00;99.90;;;16.84;58.87;101451.34;5019037;28;20452;-71
2022/07/11 04:00:57;;;;;;;2.47;1.30;;;14.50;95.60;;;17.13;57.07;101455.16;5019501;28;20419;-71
2022/07/11 04:03:26;;;;;;;4.43;1.30;;;15.10;80.60;;;17.83;55.15;101457.25;5030542;28;20539;-71
2022/07/11 04:05:56;;;;;;;5.00;1.60;;;15.60;69.40;;;17.94;54.65;101453.69;5030079;28;20444;-71
2022/07/11 04:08:25;;;;;;;3.70;1.87;;;15.80;1.00;;;18.02;54.15;101456.91;5029690;28;20438;-71
2022/07/11 04:10:54;;;;;;;3.00;1.57;;;16.20;51.50;;;18.75;52.72;101456.38;5023040;28;20455;-70
2022/07/11 04:13:23;;;;;;;4.43;1.30;;;16.60;48.40;;;18.86;51.95;101455.53;5005441;28;20476;-70
2022/07/11 04:15:53;;;;;;;4.90;1.50;;;16.70;44.60;;;19.03;51.22;101453.66;5005440;28;20431;-71
2022/07/11 04:18:22;;;;;;;4.00;1.00;;;16.90;40.90;;;19.21;50.66;101455.38;5029869;28;20922;-69
2022/07/11 04:20:51;;;;;;;4.37;1.30;;;17.20;38.60;;;18.91;51.58;101460.28;5037699;28;20399;-69
2022/07/11 04:23:21;;;;;;;2.60;1.60;;;16.90;38.30;;;18.86;51.19;101455.53;5022188;28;20455;-70
2022/07/11 04:25:50;;;;;;;2.30;1.43;;;17.20;35.30;;;19.14;50.79;101467.56;5033609;28;20466;-70
2022/07/11 04:28:19;;;;;;;1.40;0.97;;;17.50;33.80;;;19.37;50.11;101460.06;5040731;28;20435;-70
2022/07/11 04:30:48;;;;;;;3.20;1.30;;;17.50;31.80;;;19.61;49.71;101465.44;5040267;28;20493;-70
2022/07/11 04:33:18;;;;;;;5.53;1.57;;;17.70;30.90;;;20.26;47.97;101463.78;5022277;28;20437;-71
2022/07/11 04:35:47;;;;;;;5.93;1.20;;;18.00;28.40;;;19.38;49.97;101463.63;5032967;28;20409;-70
2022/07/11 04:38:16;;;;;;;1.53;1.23;;;18.00;1.00;;;19.87;48.73;101453.81;5047002;28;20474;-70
2022/07/11 04:40:45;;;;;;;3.10;1.43;;;18.00;99.90;;;19.96;48.57;101463.28;5023677;28;20419;-69
2022/07/11 04:43:14;;;;;;;3.67;1.17;;;17.90;27.80;;;19.68;48.96;101460.63;5040509;28;20422;-70
2022/07/11 04:45:43;;;;;;;5.40;1.20;;;17.80;27.10;;;19.10;50.14;101461.75;5020940;28;20564;-69
2022/07/11 04:48:13;;;;;;;4.03;1.40;;;17.80;26.60;;;19.12;50.59;101465.09;5033530;28;20467;-69
2022/07/11 04:50:45;;;;;;;5.73;1.70;;;17.70;27.40;;;20.28;48.26;101461.59;5036305;28;20441;-70
2022/07/11 04:53:14;;;;;;;4.60;2.17;;;18.00;27.00;;;21.10;46.15;101464.34;5022954;28;20508;-70
2022/07/11 04:55:43;;;;;;;4.40;1.47;;;18.20;25.60;;;21.43;45.62;101465.25;5043907;28;20430;-70
2022/07/11 04:58:12;;;;;;;4.53;1.73;;;18.70;25.00;;;20.50;47.01;101463.56;5040537;28;20675;-70
2022/07/11 05:00:45;;;;;;;3.23;1.33;;;18.60;23.60;;;21.50;45.16;101460.38;5036117;28;20450;-71
2022/07/11 05:03:15;;;;;;;3.63;1.43;;;18.60;24.20;;;21.45;45.33;101466.66;5020858;28;20470;-71
2022/07/11 05:05:46;;;;;;;6.73;1.10;;;19.00;22.90;;;21.68;44.66;101471.84;5043688;28;20415;-70
2022/07/11 05:08:15;;;;;;;7.53;1.80;;;19.10;22.40;;;22.07;43.91;101466.94;5038252;28;20431;-71
2022/07/11 05:10:44;;;;;;;1.90;1.40;;;19.30;21.00;;;22.05;44.34;101474.66;5034407;28;20443;-71
2022/07/11 05:13:13;;;;;;;2.60;1.23;;;19.40;20.60;;;22.38;43.71;101475.41;5036761;28;20480;-71
2022/07/11 05:15:42;;;;;;;3.30;1.13;;;19.70;20.00;;;22.25;43.65;101473.13;5030509;28;20410;-71
2022/07/11 05:18:11;;;;;;;5.30;1.67;;;19.40;20.40;;;22.53;43.02;101483.78;5032004;28;20781;-71
2022/07/11 05:20:40;;;;;;;3.60;2.30;;;19.70;19.30;;;22.00;44.28;101480.13;5017480;28;20441;-71
2022/07/11 05:23:10;;;;;;;4.70;2.57;;;19.90;18.80;;;21.59;45.05;101478.91;5011843;28;20472;-71
2022/07/11 05:25:39;;;;;;;4.00;1.47;;;19.30;19.80;;;20.39;47.55;101492.84;5026518;28;20454;-70
2022/07/11 05:28:12;;;;;;;5.97;1.43;;;19.00;19.90;;;20.37;47.78;101487.63;5033344;28;20458;-70
2022/07/11 05:30:41;;;;;;;6.83;2.17;;;18.90;20.50;;;21.56;45.39;101478.59;5041046;28;20455;-71
2022/07/11 05:33:10;;;;;;;3.53;1.00;;;19.10;20.50;;;21.66;45.50;101485.03;5013919;28;20475;-71
2022/07/11 05:35:39;;;;;;;2.80;1.10;;;19.10;20.60;;;21.19;46.07;101489.53;5028306;28;20418;-70
2022/07/11 05:38:10;;;;;;;2.03;1.13;;;19.30;20.00;;;20.00;48.86;101494.69;5008013;28;20479;-71
2022/07/11 05:40:39;;;;;;;1.90;1.40;;;18.50;21.30;;;19.22;50.62;101495.44;5028372;28;20437;-70
2022/07/11 05:43:09;;;;;;;5.10;1.63;;;18.20;23.00;;;17.43;55.54;101485.22;5025951;28;20456;-71
2022/07/11 05:45:38;;;;;;;4.77;2.40;;;17.10;26.20;;;16.48;58.58;101486.84;5022712;28;20842;-70
2022/07/11 05:48:07;;;;;;;2.80;1.57;;;16.50;30.50;;;15.40;62.46;101504.50;5033413;28;20460;-70
2022/07/11 05:50:37;;;;;;;5.67;1.70;;;15.70;37.70;;;15.20;63.63;101507.38;5027249;28;20828;-70
2022/07/11 05:53:07;;;;;;;6.10;1.87;;;15.30;48.90;;;14.61;65.78;101494.81;5036734;28;20525;-70
2022/07/11 05:55:37;;;;;;;3.93;1.43;;;14.80;1.00;;;14.66;66.17;101502.34;5036292;28;20459;-71
2022/07/11 05:58:07;;;;;;;2.57;1.77;;;14.70;1.00;;;14.85;65.75;101496.00;5026902;28;20407;-70
2022/07/11 06:00:36;;;;;;;2.20;1.40;;;14.70;1.00;;;14.74;66.37;101504.81;5019050;28;20448;-71
2022/07/11 06:03:05;;;;;;;3.03;2.07;;;14.60;1.00;;;14.88;66.46;101497.44;5046015;28;20424;-70
2022/07/11 06:05:35;;;;;;;3.20;1.20;;;14.70;1.00;;;14.94;66.41;101507.47;5031629;28;20435;-71
2022/07/11 06:10:52;;;;;;;2.23;1.40;;;14.80;1.00;;;15.23;65.99;101496.84;5023348;28;20446;-69
2022/07/11 06:13:20;;;;;;;3.57;1.77;;;14.90;1.00;;;14.86;67.03;101502.28;5024163;28;20464;-71
2022/07/11 06:15:50;;;;;;;8.93;2.63;;;14.80;1.00;;;15.25;65.91;101501.25;5034250;28;20444;-70
2022/07/11 06:18:20;;;;;;;5.00;2.37;;;15.00;1.00;;;15.25;66.06;101504.00;5013390;28;20448;-70
2022/07/11 06:20:49;;;;;;;1.93;1.57;;;15.10;1.00;;;15.53;65.35;101504.47;5035448;28;20413;-71
2022/07/11 06:23:18;;;;;;;2.53;1.50;;;15.30;1.00;;;15.71;65.27;101507.28;5031556;28;20427;-70
2022/07/11 06:25:47;;;;;;;3.10;1.63;;;15.40;1.00;;;15.86;64.40;101507.78;5021938;28;20444;-70
2022/07/11 06:28:18;;;;;;;3.63;1.57;;;15.60;1.00;;;15.94;64.33;101515.69;5022366;28;20427;-72
2022/07/11 06:30:47;;;;;;;6.13;1.47;;;15.80;1.00;;;16.13;63.93;101504.81;5017699;28;20444;-72
2022/07/11 06:33:17;;;;;;;2.93;1.43;;;15.80;1.00;;;15.87;64.56;101516.81;5012418;28;21083;-72
2022/07/11 06:35:47;;;;;;;7.60;3.73;;;15.70;1.00;;;15.94;64.74;101510.25;5039658;28;20438;-72
2022/07/11 06:38:17;;;;;;;3.70;1.70;;;15.80;1.00;;;15.99;64.39;101504.09;5022542;28;20931;-72
2022/07/11 06:40:46;;;;;;;4.50;1.93;;;15.80;1.00;;;15.98;64.88;101503.25;5033228;28;20435;-72
2022/07/11 06:43:17;;;;;;;3.60;1.50;;;15.80;1.00;;;16.16;64.27;101509.84;5014128;28;20462;-73
2022/07/11 06:45:46;;;;;;;4.00;1.70;;;16.00;1.00;;;16.38;63.63;101513.81;5022793;28;20525;-72
2022/07/11 06:48:16;;;;;;;4.50;1.80;;;16.10;1.00;;;16.54;63.43;101502.31;5018983;28;20447;-72
2022/07/11 06:50:45;;;;;;;5.93;2.00;;;16.30;1.00;;;16.99;62.59;101510.25;5035508;28;20880;-72
2022/07/11 06:53:14;;;;;;;1.73;1.10;;;16.60;1.00;;;17.10;61.38;101503.97;5054932;28;20801;-72
2022/07/11 06:55:43;;;;;;;3.93;1.60;;;16.80;1.00;;;17.03;61.79;101505.97;5048838;28;20382;-72
2022/07/11 06:58:31;;;;;;;4.00;1.60;;;16.90;1.00;;;16.97;62.30;101506.91;5049622;28;20468;-72
2022/07/11 07:01:03;;;;;;;5.20;1.90;;;16.80;1.00;;;17.10;61.89;101512.19;5051286;28;20494;-71
2022/07/11 07:03:35;;;;;;;7.73;1.60;;;16.90;1.00;;;16.99;61.93;101512.97;5033625;28;20449;-72
2022/07/11 07:06:05;;;;;;;3.60;2.03;;;16.90;1.00;;;17.06;62.20;101510.97;5034976;28;20448;-71
2022/07/11 07:08:35;;;;;;;3.03;1.20;;;16.90;1.00;;;17.35;61.16;101511.00;5034913;28;20547;-72
2022/07/11 07:11:04;;;;;;;4.70;1.40;;;17.10;1.00;;;16.94;61.97;101509.00;5041565;28;20743;-71
2022/07/11 07:13:37;;;;;;;3.90;1.30;;;16.90;1.00;;;17.58;60.94;101507.50;5037682;28;20486;-72
2022/07/11 07:16:08;;;;;;;3.93;1.60;;;17.20;1.00;;;17.75;60.61;101508.56;5046439;28;20398;-73
2022/07/11 07:18:40;;;;;;;3.60;2.17;;;17.40;1.00;;;18.39;58.97;101506.84;5020482;28;20434;-71
2022/07/11 07:21:10;;;;;;;5.47;2.40;;;17.80;1.00;;;18.37;58.31;101511.69;5027009;28;20909;-72
2022/07/11 07:23:39;;;;;;;3.30;1.63;;;18.00;54.80;;;18.50;58.35;101511.44;5037901;28;20477;-71
2022/07/11 07:26:09;;;;;;;2.50;1.43;;;18.20;53.40;;;18.50;57.50;101518.84;5024163;28;20424;-72
2022/07/11 07:28:38;;;;;;;2.33;1.40;;;18.20;50.10;;;18.44;57.70;101517.91;5023540;28;20406;-71
2022/07/11 07:31:11;;;;;;;2.80;1.33;;;18.10;49.70;;;18.16;58.05;101515.84;5033688;28;20432;-72
2022/07/11 07:33:44;;;;;;;2.17;1.17;;;18.00;48.20;;;18.54;57.96;101526.38;5033942;28;20447;-71
2022/07/11 07:36:15;;;;;;;3.03;1.80;;;18.20;49.70;;;18.21;57.91;101520.63;5048177;28;20406;-73
2022/07/11 07:38:47;;;;;;;2.97;1.13;;;18.10;47.00;;;18.30;58.46;101526.59;5033363;28;20493;-72
2022/07/11 07:41:17;;;;;;;4.07;1.40;;;18.00;48.90;;;18.37;58.27;101536.38;5041779;28;20462;-71
2022/07/11 07:43:48;;;;;;;3.20;1.80;;;18.00;48.70;;;18.24;58.25;101525.66;5032716;28;20456;-70
2022/07/11 07:46:19;;;;;;;2.83;1.40;;;18.00;48.00;;;18.01;58.97;101531.09;5019600;28;20426;-72
2022/07/11 07:48:49;;;;;;;3.90;1.37;;;18.00;47.90;;;17.73;59.67;101531.75;5042549;28;20416;-71
2022/07/11 07:51:19;;;;;;;2.57;1.30;;;17.70;48.40;;;17.65;59.48;101535.66;5037880;28;20449;-71
2022/07/11 07:53:48;;;;;;;5.53;1.80;;;17.70;48.50;;;17.99;60.03;101534.06;5024684;28;20521;-71
2022/07/11 07:56:24;;;;;;;14.43;2.00;;;17.80;1.00;;;18.32;58.35;101532.66;5041585;28;20500;-72
2022/07/11 07:58:53;;;;;;;1.50;1.30;;;18.10;1.00;;;18.28;57.76;101535.06;5029517;28;20407;-72
2022/07/11 08:01:35;;;;;;;2.17;1.57;;;18.10;46.00;;;18.45;57.31;101533.25;5027960;28;20981;-72
2022/07/11 08:04:06;;;;;;;3.57;1.40;;;18.20;45.20;;;18.62;57.36;101539.72;5015747;28;20410;-72
2022/07/11 08:06:37;;;;;;;4.40;1.20;;;18.40;45.60;;;18.68;56.99;101537.94;5018910;28;21005;-71
2022/07/11 08:09:07;;;;;;;7.73;1.57;;;18.50;44.00;;;18.53;56.48;101540.31;5038049;28;20410;-72
2022/07/11 08:11:37;;;;;;;1.83;1.33;;;18.50;41.20;;;18.47;56.69;101531.13;5047569;28;20446;-72
2022/07/11 08:14:07;;;;;;;3.20;1.67;;;18.40;40.80;;;18.46;57.44;101534.94;5036769;28;20410;-71
2022/07/11 08:16:38;;;;;;;7.13;1.20;;;18.40;42.10;;;18.81;55.68;101531.34;5026654;28;20926;-72
2022/07/11 08:19:07;;;;;;;4.63;1.40;;;18.60;39.70;;;19.04;54.51;101531.28;5022878;28;20463;-70
2022/07/11 08:21:36;;;;;;;4.23;1.73;;;18.80;36.10;;;19.47;54.60;101534.38;5019332;28;20854;-72
2022/07/11 08:24:06;;;;;;;3.17;1.20;;;19.10;36.60;;;19.57;53.55;101535.66;5039871;28;20417;-72
2022/07/11 08:26:35;;;;;;;3.80;2.03;;;19.30;34.10;;;19.59;54.03;101533.50;5046857;28;20431;-71
2022/07/11 08:29:06;;;;;;;3.10;1.70;;;19.30;34.40;;;20.25;52.62;101532.72;5040724;28;20800;-71
2022/07/11 08:31:36;;;;;;;4.10;2.07;;;19.70;33.40;;;20.61;52.12;101537.72;5041323;28;20435;-71
2022/07/11 08:34:07;;;;;;;4.33;1.27;;;20.10;32.50;;;20.15;52.34;101543.56;5042671;28;20429;-72
2022/07/11 08:36:43;;;;;;;5.87;1.50;;;20.00;29.50;;;19.87;53.11;101542.53;5039147;28;20420;-72
2022/07/11 08:39:12;;;;;;;2.33;1.67;;;19.90;29.50;;;20.20;52.45;101536.22;5035548;28;20406;-72
2022/07/11 08:41:45;;;;;;;3.70;1.63;;;20.00;29.00;;;20.25;52.13;101536.31;5040537;28;20432;-71
2022/07/11 08:44:17;;;;;;;3.37;1.37;;;20.10;28.60;;;19.60;53.13;101538.78;5047631;28;20726;-73
2022/07/11 08:46:47;;;;;;;7.83;1.40;;;19.70;27.60;;;20.14;52.47;101528.97;5033782;28;20435;-72
2022/07/11 08:49:17;;;;;;;2.77;1.50;;;19.90;28.40;;;20.66;51.68;101537.78;5039743;28;20443;-72
2022/07/11 08:51:48;;;;;;;2.57;1.70;;;20.20;28.30;;;20.38;51.82;101527.75;5015373;28;20498;-71
2022/07/11 08:54:18;;;;;;;4.60;0.93;;;20.30;27.00;;;20.65;50.58;101529.78;5021130;28;20432;-72
2022/07/11 08:56:49;;;;;;;2.90;1.37;;;20.40;26.00;;;20.94;50.97;101536.78;5046627;28;20414;-72
2022/07/11 08:59:19;;;;;;;2.93;1.20;;;20.60;26.20;;;20.28;51.46;101540.47;5039474;28;20828;-73
2022/07/11 09:01:52;;;;;;;4.30;1.53;;;20.50;24.80;;;20.61;50.97;101536.88;5033281;28;20519;-73
2022/07/11 09:04:25;;;;;;;5.37;1.20;;;20.40;25.90;;;21.24;49.50;101530.88;5029436;28;20851;-72
2022/07/11 09:06:54;;;;;;;2.27;1.30;;;20.80;24.80;;;21.01;50.14;101542.91;5018832;28;20997;-73
2022/07/11 09:09:25;;;;;;;3.37;1.43;;;20.90;23.50;;;21.10;49.37;101535.91;5038680;28;20435;-72
2022/07/11 09:11:59;;;;;;;2.97;1.53;;;21.10;22.60;;;20.95;49.32;101527.47;5020268;28;20471;-72
2022/07/11 09:14:30;;;;;;;6.70;1.40;;;20.80;21.50;;;20.83;50.21;101534.97;5039698;28;20436;-73
2022/07/11 09:17:03;;;;;;;4.03;1.40;;;20.70;22.60;;;20.97;50.05;101532.69;5029269;28;20427;-74
2022/07/11 09:19:39;;;;;;;5.30;1.33;;;20.80;22.40;;;20.81;49.69;101521.50;5028339;28;20792;-73
2022/07/11 09:27:49;;;;;;;2.10;1.23;;;20.30;19.70;;;20.80;47.06;101541.00;5040784;28;20427;-72
2022/07/11 09:30:30;;;;;;;5.00;1.67;;;20.50;18.10;;;20.85;48.91;101535.56;5016898;28;20447;-73
2022/07/11 09:33:01;;;;;;;3.13;1.50;;;20.70;19.60;;;21.00;49.63;101534.94;5042527;28;20466;-73
2022/07/11 09:35:35;;;;;;;4.30;1.33;;;20.70;21.00;;;21.79;48.46;101527.84;5027862;28;20475;-73
2022/07/11 09:38:06;;;;;;;1.90;1.13;;;21.30;21.00;;;21.59;46.72;101528.47;5038218;28;20432;-73
2022/07/11 09:40:37;;;;;;;4.43;1.20;;;21.30;17.30;;;21.49;46.36;101533.06;5043345;28;20411;-72
2022/07/11 09:43:07;;;;;;;3.33;1.13;;;21.40;16.60;;;21.53;45.65;101525.97;5056424;28;20983;-70
2022/07/11 09:45:37;;;;;;;5.17;1.07;;;21.30;15.20;;;21.92;45.78;101521.94;5042483;28;20440;-72
2022/07/11 09:48:14;;;;;;;5.87;1.67;;;21.60;15.60;;;21.10;46.99;101524.06;5048165;28;20473;-72
2022/07/11 09:51:00;;;;;;;2.80;1.03;;;21.10;15.40;;;20.83;47.17;101534.97;5039368;28;20432;-74
2022/07/11 09:53:29;;;;;;;3.27;1.53;;;20.80;15.10;;;21.52;46.90;101527.03;5038318;28;20509;-72
2022/07/11 09:55:59;;;;;;;2.97;2.50;;;21.10;16.50;;;21.72;45.89;101527.25;5015988;28;20836;-72
2022/07/11 09:58:31;;;;;;;2.70;1.23;;;21.30;15.10;;;21.84;46.01;101525.13;5032426;28;20487;-72
2022/07/11 10:01:01;;;;;;;2.73;1.10;;;21.50;15.50;;;22.36;45.58;101532.78;5019504;28;20415;-72
2022/07/11 10:03:31;;;;;;;2.80;1.00;;;21.90;15.30;;;21.72;45.91;101530.00;5032871;28;20490;-71
2022/07/11 10:06:22;;;;;;;2.53;0.63;;;21.70;14.50;;;20.82;46.88;101527.81;5031070;28;20432;-72
2022/07/11 10:08:52;;;;;;;1.77;1.03;;;21.00;14.00;;;20.55;46.89;101532.38;5029460;28;20420;-72
2022/07/11 10:11:22;;;;;;;2.13;0.80;;;20.60;13.90;;;20.91;46.04;101536.47;5013811;28;20456;-73
2022/07/11 10:13:52;;;;;;;1.50;0.90;;;20.70;14.00;;;21.15;45.80;101521.41;5009337;28;20523;-73
2022/07/11 10:16:39;;;;;;;2.60;0.80;;;20.90;14.10;;;21.57;45.27;101524.34;5037777;28;20406;-73
2022/07/11 10:19:24;;;;;;;1.80;1.00;;;21.20;13.70;;;21.65;44.46;101526.63;5015412;28;20429;-73
2022/07/11 10:22:16;;;;;;;1.40;1.00;;;21.40;12.30;;;21.67;44.82;101533.53;5030815;28;20462;-72
2022/07/11 10:24:56;;;;;;;5.10;0.90;;;21.40;12.10;;;21.62;44.13;101527.16;5028730;28;20444;-72
2022/07/11 10:27:41;;;;;;;1.97;1.00;;;21.50;11.40;;;22.12;43.65;101517.72;5035340;28;21004;-72
2022/07/11 10:30:11;;;;;;;2.10;1.03;;;21.80;10.90;;;22.29;42.97;101515.63;5019112;28;20445;-72
2022/07/11 10:33:00;;;;;;;2.13;1.10;;;22.00;10.30;;;21.96;43.58;101520.34;5031227;28;20478;-72
2022/07/11 10:35:32;;;;;;;2.10;0.83;;;21.90;9.60;;;21.47;44.26;101522.31;5028417;28;20428;-73
2022/07/11 10:38:07;;;;;;;2.20;0.90;;;21.50;10.00;;;21.23;44.59;101519.03;5016679;28;20443;-72